createdAt,value
2019-06-01T00:01:49.599Z,182.07
2019-06-01T00:04:19.017Z,181.30
2019-06-01T00:06:49.392Z,199.50
2019-06-01T00:09:20.242Z,182.00
2019-06-01T00:11:50.026Z,182.67
2019-06-01T00:14:20.103Z,188.60
2019-06-01T00:16:50.390Z,187.20
2019-06-01T00:19:20.294Z,180.33
2019-06-01T00:21:52.308Z,190.67
2019-06-01T00:24:22.866Z,185.80
2019-06-01T00:26:52.271Z,188.30
2019-06-01T00:29:23.439Z,202.95
2019-06-01T00:31:53.544Z,229.57
2019-06-01T00:34:24.663Z,217.80
2019-06-01T00:36:55.064Z,217.37
2019-06-01T00:39:24.559Z,203.67
2019-06-01T00:41:54.030Z,193.00
2019-06-01T00:44:23.650Z,192.35
2019-06-01T00:46:54.353Z,191.53
2019-06-01T00:49:23.784Z,188.07
2019-06-01T00:51:53.795Z,192.80
2019-06-01T00:54:23.295Z,195.97
2019-06-01T00:56:53.888Z,190.70
2019-06-01T00:59:24.097Z,188.97
2019-06-01T01:01:54.235Z,191.47
2019-06-01T01:04:24.145Z,191.57
2019-06-01T01:06:54.686Z,189.10
2019-06-01T01:09:25.027Z,201.60
2019-06-01T01:11:55.314Z,190.90
2019-06-01T01:14:25.209Z,188.47
2019-06-01T01:16:55.676Z,201.37
2019-06-01T01:19:25.163Z,189.50
2019-06-01T01:21:56.405Z,194.53
2019-06-01T01:24:27.956Z,187.90
2019-06-01T01:26:57.292Z,198.03
2019-06-01T01:29:26.702Z,185.23
2019-06-01T01:31:57.316Z,187.20
2019-06-01T01:34:32.047Z,189.43
2019-06-01T01:37:02.006Z,190.70
2019-06-01T01:39:31.780Z,187.43
2019-06-01T01:42:01.188Z,193.97
2019-06-01T01:44:30.966Z,202.00
2019-06-01T01:47:02.498Z,224.23
2019-06-01T01:49:31.968Z,202.97
2019-06-01T01:52:05.373Z,198.30
2019-06-01T01:54:35.555Z,195.40
2019-06-01T01:57:07.194Z,188.03
2019-06-01T01:59:36.047Z,196.07
2019-06-01T02:02:05.482Z,183.37
2019-06-01T02:04:35.369Z,183.40
2019-06-01T02:07:06.455Z,185.77
2019-06-01T02:09:39.145Z,187.27
2019-06-01T02:12:09.324Z,202.07
2019-06-01T02:14:39.889Z,187.67
2019-06-01T02:17:09.316Z,187.17
2019-06-01T02:19:39.117Z,188.30
2019-06-01T02:22:08.504Z,184.37
2019-06-01T02:24:37.940Z,185.30
2019-06-01T02:27:07.350Z,185.93
2019-06-01T02:29:37.344Z,185.97
2019-06-01T02:32:07.547Z,190.63
2019-06-01T02:34:38.309Z,186.20
2019-06-01T02:37:08.798Z,191.47
2019-06-01T02:39:40.300Z,183.20
2019-06-01T02:42:11.277Z,188.43
2019-06-01T02:44:41.531Z,190.23
2019-06-01T02:47:11.634Z,185.13
2019-06-01T02:49:41.025Z,182.37
2019-06-01T02:52:10.418Z,188.33
2019-06-01T02:54:40.235Z,186.23
2019-06-01T02:57:10.505Z,187.77
2019-06-01T02:59:39.952Z,187.20
2019-06-01T03:02:14.294Z,190.43
2019-06-01T03:04:42.234Z,183.87
2019-06-01T03:07:13.446Z,182.87
2019-06-01T03:09:45.360Z,183.40
2019-06-01T03:12:18.358Z,189.62
2019-06-01T03:14:49.850Z,184.87
2019-06-01T03:17:22.188Z,183.35
2019-06-01T03:19:57.826Z,180.30
2019-06-01T03:22:28.280Z,188.00
2019-06-01T03:25:01.909Z,186.70
2019-06-01T03:27:35.060Z,189.60
2019-06-01T03:30:09.834Z,181.10
2019-06-01T03:32:39.306Z,186.18
2019-06-01T03:35:08.948Z,200.67
2019-06-01T03:37:39.057Z,189.37
2019-06-01T03:40:21.721Z,188.03
2019-06-01T03:42:41.734Z,179.63
2019-06-01T03:45:12.853Z,193.62
2019-06-01T03:47:43.168Z,184.97
2019-06-01T03:50:13.361Z,180.57
2019-06-01T03:52:43.386Z,180.00
2019-06-01T03:55:13.658Z,185.60
2019-06-01T03:57:43.056Z,180.77
2019-06-01T04:00:13.330Z,175.15
2019-06-01T04:02:43.539Z,180.53
2019-06-01T04:05:13.937Z,178.17
2019-06-01T04:07:45.169Z,187.57
2019-06-01T04:10:15.948Z,176.12
2019-06-01T04:12:45.360Z,177.87
2019-06-01T04:15:16.884Z,178.65
2019-06-01T04:17:46.773Z,177.37
2019-06-01T04:20:18.153Z,176.25
2019-06-01T04:22:48.041Z,176.53
2019-06-01T04:25:19.359Z,177.93
2019-06-01T04:27:48.689Z,175.77
2019-06-01T04:30:19.923Z,178.12
2019-06-01T04:32:50.642Z,176.47
2019-06-01T04:35:20.098Z,177.25
2019-06-01T04:37:49.879Z,177.37
2019-06-01T04:40:19.281Z,177.65
2019-06-01T04:42:49.557Z,176.90
2019-06-01T04:45:22.945Z,184.57
2019-06-01T04:47:52.964Z,177.90
2019-06-01T04:50:22.344Z,177.27
2019-06-01T04:52:52.297Z,178.63
2019-06-01T04:55:22.380Z,176.63
2019-06-01T04:57:54.184Z,175.07
2019-06-01T05:00:27.701Z,178.87
2019-06-01T05:03:04.874Z,175.27
2019-06-01T05:05:26.489Z,172.40
2019-06-01T05:07:57.276Z,170.97
2019-06-01T05:10:27.603Z,174.43
2019-06-01T05:12:56.994Z,172.87
2019-06-01T05:15:26.399Z,172.43
2019-06-01T05:17:59.139Z,179.80
2019-06-01T05:20:32.365Z,173.70
2019-06-01T05:23:01.809Z,171.13
2019-06-01T05:25:31.775Z,176.23
2019-06-01T05:28:01.229Z,172.63
2019-06-01T05:30:31.320Z,175.00
2019-06-01T05:33:01.154Z,175.60
2019-06-01T05:35:31.534Z,185.97
2019-06-01T05:38:01.484Z,172.37
2019-06-01T05:40:32.018Z,167.28
2019-06-01T05:43:02.433Z,168.13
2019-06-01T05:45:31.804Z,164.13
2019-06-01T05:48:01.369Z,161.82
2019-06-01T05:50:31.817Z,170.53
2019-06-01T05:53:01.962Z,162.53
2019-06-01T05:55:32.188Z,157.30
2019-06-01T05:58:02.190Z,154.17
2019-06-01T06:00:42.921Z,150.63
2019-06-01T06:03:16.175Z,149.70
2019-06-01T06:05:45.641Z,147.47
2019-06-01T06:08:17.972Z,147.30
2019-06-01T06:10:47.784Z,149.67
2019-06-01T06:13:19.307Z,143.13
2019-06-01T06:15:49.382Z,141.90
2019-06-01T06:18:19.811Z,141.47
2019-06-01T06:20:49.396Z,137.83
2019-06-01T06:23:18.928Z,137.97
2019-06-01T06:25:48.893Z,141.20
2019-06-01T06:28:18.799Z,139.77
2019-06-01T06:30:49.068Z,141.57
2019-06-01T06:33:19.449Z,141.13
2019-06-01T06:35:48.856Z,136.77
2019-06-01T06:38:18.245Z,139.00
2019-06-01T06:40:47.960Z,145.70
2019-06-01T06:43:23.646Z,138.23
2019-06-01T06:45:50.832Z,134.67
2019-06-01T06:48:21.264Z,131.65
2019-06-01T06:50:50.790Z,132.43
2019-06-01T06:53:28.468Z,131.65
2019-06-01T06:55:51.718Z,128.03
2019-06-01T06:58:22.439Z,129.53
2019-06-01T07:00:53.490Z,132.07
2019-06-01T07:03:23.548Z,132.20
2019-06-01T07:05:53.515Z,132.70
2019-06-01T07:08:23.885Z,127.27
2019-06-01T07:10:54.310Z,127.27
2019-06-01T07:13:23.985Z,129.40
2019-06-01T07:15:53.385Z,130.63
2019-06-01T07:18:25.652Z,131.60
2019-06-01T07:20:55.123Z,123.30
2019-06-01T07:23:25.808Z,127.02
2019-06-01T07:25:55.859Z,128.70
2019-06-01T07:28:26.203Z,126.50
2019-06-01T07:30:55.731Z,128.50
2019-06-01T07:33:26.364Z,127.05
2019-06-01T07:35:56.458Z,130.17
2019-06-01T07:38:26.788Z,129.25
2019-06-01T07:40:57.718Z,126.70
2019-06-01T07:43:27.428Z,128.32
2019-06-01T07:45:57.649Z,136.50
2019-06-01T07:48:27.182Z,130.00
2019-06-01T07:50:57.264Z,124.70
2019-06-01T07:53:27.412Z,125.63
2019-06-01T07:55:56.985Z,154.63
2019-06-01T07:58:26.761Z,136.85
2019-06-01T08:00:56.395Z,124.40
2019-06-01T08:03:28.904Z,130.77
2019-06-01T08:05:57.292Z,127.67
2019-06-01T08:08:27.349Z,125.10
2019-06-01T08:10:57.193Z,129.87
2019-06-01T08:13:31.527Z,122.77
2019-06-01T08:16:00.650Z,122.77
2019-06-01T08:18:32.344Z,122.00
2019-06-01T08:21:02.666Z,122.30
2019-06-01T08:23:32.597Z,122.27
2019-06-01T08:26:02.640Z,120.90
2019-06-01T08:28:36.592Z,122.20
2019-06-01T08:31:06.333Z,121.27
2019-06-01T08:33:41.564Z,119.90
2019-06-01T08:36:15.384Z,127.77
2019-06-01T08:38:47.645Z,308.20
2019-06-01T08:41:18.349Z,132.80
2019-06-01T08:43:47.746Z,135.33
2019-06-01T08:46:19.361Z,124.35
2019-06-01T08:48:49.022Z,126.40
2019-06-01T08:51:18.996Z,134.13
2019-06-01T08:53:49.133Z,121.40
2019-06-01T08:56:21.808Z,124.97
2019-06-01T08:58:49.619Z,128.00
2019-06-01T09:01:19.022Z,125.67
2019-06-01T09:03:48.949Z,125.90
2019-06-01T09:06:18.352Z,129.87
2019-06-01T09:08:48.070Z,123.33
2019-06-01T09:11:18.857Z,129.60
2019-06-01T09:13:52.613Z,125.57
2019-06-01T09:16:22.304Z,126.75
2019-06-01T09:18:53.226Z,131.80
2019-06-01T09:21:22.777Z,124.83
2019-06-01T09:23:52.393Z,127.50
2019-06-01T09:26:22.425Z,134.10
2019-06-01T09:28:51.823Z,126.40
2019-06-01T09:31:22.083Z,125.92
2019-06-01T09:33:52.427Z,123.60
2019-06-01T09:36:22.498Z,121.62
2019-06-01T09:38:55.416Z,121.83
2019-06-01T09:41:26.525Z,121.53
2019-06-01T09:43:55.867Z,123.90
2019-06-01T09:46:26.900Z,123.30
2019-06-01T09:48:56.478Z,123.67
2019-06-01T09:51:27.352Z,127.00
2019-06-01T09:53:58.637Z,126.80
2019-06-01T09:56:30.874Z,120.47
2019-06-01T09:59:02.456Z,131.13
2019-06-01T10:01:34.470Z,125.20
2019-06-01T10:04:03.924Z,127.30
2019-06-01T10:06:34.677Z,138.90
2019-06-01T10:09:06.322Z,128.87
2019-06-01T10:11:36.556Z,131.03
2019-06-01T10:14:06.181Z,128.67
2019-06-01T10:16:39.819Z,132.63
2019-06-01T10:19:09.593Z,131.60
2019-06-01T10:21:39.611Z,140.97
2019-06-01T10:24:12.457Z,136.53
2019-06-01T10:26:43.079Z,152.10
2019-06-01T10:29:12.566Z,142.17
2019-06-01T10:31:43.989Z,140.60
2019-06-01T10:34:13.809Z,141.23
2019-06-01T10:36:44.498Z,152.20
2019-06-01T10:39:14.551Z,145.33
2019-06-01T10:41:44.493Z,139.57
2019-06-01T10:44:14.714Z,141.13
2019-06-01T10:46:44.762Z,139.57
2019-06-01T10:49:14.214Z,139.15
2019-06-01T10:51:43.711Z,148.90
2019-06-01T10:54:13.891Z,138.80
2019-06-01T10:56:44.659Z,149.17
2019-06-01T10:59:15.535Z,140.47
2019-06-01T11:01:51.558Z,138.00
2019-06-01T11:04:22.233Z,142.00
2019-06-01T11:06:53.154Z,142.07
2019-06-01T11:09:25.651Z,144.50
2019-06-01T11:11:55.794Z,142.33
2019-06-01T11:14:25.157Z,142.77
2019-06-01T11:16:56.420Z,141.83
2019-06-01T11:19:26.269Z,144.77
2019-06-01T11:21:55.778Z,143.10
2019-06-01T11:24:25.614Z,153.68
2019-06-01T11:26:55.064Z,138.97
2019-06-01T11:29:24.859Z,141.92
2019-06-01T11:31:54.293Z,140.27
2019-06-01T11:34:24.727Z,144.00
2019-06-01T11:37:04.914Z,143.80
2019-06-01T11:39:25.213Z,139.62
2019-06-01T11:41:55.653Z,141.40
2019-06-01T11:44:25.533Z,142.47
2019-06-01T11:46:55.904Z,144.80
2019-06-01T11:49:26.133Z,142.33
2019-06-01T11:51:55.512Z,143.10
2019-06-01T11:54:24.905Z,143.83
2019-06-01T11:56:54.541Z,141.83
2019-06-01T11:59:26.759Z,144.05
2019-06-01T12:01:58.426Z,153.67
2019-06-01T12:04:28.203Z,142.70
2019-06-01T12:07:13.695Z,152.23
2019-06-01T12:09:35.711Z,152.27
2019-06-01T12:12:05.844Z,152.47
2019-06-01T12:14:36.297Z,149.30
2019-06-01T12:17:06.136Z,152.80
2019-06-01T12:19:36.513Z,143.53
2019-06-01T12:22:06.348Z,144.17
2019-06-01T12:24:38.824Z,142.13
2019-06-01T12:27:08.359Z,145.10
2019-06-01T12:29:37.792Z,162.97
2019-06-01T12:32:07.966Z,145.60
2019-06-01T12:34:39.961Z,147.37
2019-06-01T12:37:12.079Z,145.10
2019-06-01T12:39:42.336Z,144.50
2019-06-01T12:42:11.751Z,149.60
2019-06-01T12:44:45.861Z,150.43
2019-06-01T12:47:17.112Z,144.82
2019-06-01T12:49:48.291Z,143.67
2019-06-01T12:52:19.029Z,150.60
2019-06-01T12:54:49.844Z,145.20
2019-06-01T12:57:25.178Z,149.85
2019-06-01T12:59:54.696Z,150.20
2019-06-01T13:02:24.098Z,154.20
2019-06-01T13:04:53.952Z,150.43
2019-06-01T13:07:23.284Z,149.30
2019-06-01T13:09:52.921Z,145.80
2019-06-01T13:12:22.576Z,146.77
2019-06-01T13:14:52.480Z,145.67
2019-06-01T13:17:21.893Z,145.97
2019-06-01T13:19:51.633Z,150.07
2019-06-01T13:22:21.066Z,152.00
2019-06-01T13:24:51.918Z,145.50
2019-06-01T13:27:21.528Z,151.10
2019-06-01T13:29:52.134Z,147.00
2019-06-01T13:32:22.221Z,146.80
2019-06-01T13:34:51.825Z,158.60
2019-06-01T13:37:21.204Z,145.47
2019-06-01T13:39:55.994Z,147.77
2019-06-01T13:42:21.657Z,150.78
2019-06-01T13:44:51.633Z,149.40
2019-06-01T13:47:21.045Z,149.77
2019-06-01T13:49:51.890Z,154.47
2019-06-01T13:52:23.124Z,147.30
2019-06-01T13:54:52.910Z,156.60
2019-06-01T13:57:22.553Z,150.30
2019-06-01T13:59:53.018Z,145.97
2019-06-01T14:02:22.402Z,150.28
2019-06-01T14:04:52.271Z,146.20
2019-06-01T14:07:21.658Z,156.47
2019-06-01T14:09:52.209Z,147.90
2019-06-01T14:12:22.254Z,148.87
2019-06-01T14:14:53.440Z,147.50
2019-06-01T14:17:23.060Z,145.95
2019-06-01T14:19:53.796Z,149.97
2019-06-01T14:22:23.229Z,143.97
2019-06-01T14:25:08.371Z,145.70
2019-06-01T14:27:24.125Z,141.60
2019-06-01T14:29:54.431Z,143.37
2019-06-01T14:32:23.813Z,145.20
2019-06-01T14:34:53.351Z,146.13
2019-06-01T14:37:25.649Z,144.17
2019-06-01T14:39:55.283Z,142.27
2019-06-01T14:42:24.989Z,146.60
2019-06-01T14:44:58.151Z,145.40
2019-06-01T14:47:32.817Z,145.23
2019-06-01T14:50:08.852Z,143.70
2019-06-01T14:52:43.950Z,143.97
2019-06-01T14:55:19.160Z,140.40
2019-06-01T14:57:55.989Z,141.50
2019-06-01T15:00:25.413Z,147.00
2019-06-01T15:02:54.808Z,141.97
2019-06-01T15:05:27.728Z,140.27
2019-06-01T15:07:57.552Z,152.95
2019-06-01T15:10:28.548Z,143.70
2019-06-01T15:13:02.662Z,144.37
2019-06-01T15:15:29.289Z,142.22
2019-06-01T15:17:58.708Z,142.37
2019-06-01T15:20:28.416Z,147.40
2019-06-01T15:22:59.143Z,149.93
2019-06-01T15:25:34.845Z,144.80
2019-06-01T15:28:11.990Z,141.20
2019-06-01T15:30:41.338Z,141.30
2019-06-01T15:33:10.709Z,140.97
2019-06-01T15:35:40.368Z,138.88
2019-06-01T15:38:09.860Z,139.80
2019-06-01T15:40:39.221Z,146.60
2019-06-01T15:43:08.983Z,148.00
2019-06-01T15:45:41.225Z,143.37
2019-06-01T15:48:09.854Z,144.90
2019-06-01T15:50:45.776Z,142.27
2019-06-01T15:53:16.176Z,144.55
2019-06-01T15:55:45.577Z,139.87
2019-06-01T15:58:16.283Z,143.87
2019-06-01T16:00:46.208Z,143.10
2019-06-01T16:03:17.170Z,143.93
2019-06-01T16:05:47.250Z,143.77
2019-06-01T16:08:18.097Z,141.47
2019-06-01T16:10:47.512Z,140.83
2019-06-01T16:13:18.101Z,143.20
2019-06-01T16:15:47.497Z,144.87
2019-06-01T16:18:18.555Z,143.72
2019-06-01T16:20:48.924Z,147.20
2019-06-01T16:23:18.476Z,149.30
2019-06-01T16:25:59.687Z,143.10
2019-06-01T16:28:20.709Z,140.47
2019-06-01T16:30:54.370Z,145.72
2019-06-01T16:33:24.090Z,143.77
2019-06-01T16:35:54.842Z,144.60
2019-06-01T16:38:24.303Z,143.63
2019-06-01T16:40:55.103Z,141.93
2019-06-01T16:43:24.617Z,145.03
2019-06-01T16:45:55.481Z,149.50
2019-06-01T16:48:26.348Z,147.47
2019-06-01T16:50:56.085Z,145.17
2019-06-01T16:53:25.617Z,150.07
2019-06-01T16:55:55.830Z,147.03
2019-06-01T16:58:25.806Z,145.33
2019-06-01T17:00:56.347Z,153.10
2019-06-01T17:03:26.448Z,146.10
2019-06-01T17:05:56.649Z,147.10
2019-06-01T17:08:26.695Z,146.40
2019-06-01T17:10:56.669Z,147.20
2019-06-01T17:13:26.794Z,148.47
2019-06-01T17:15:56.846Z,148.05
2019-06-01T17:18:26.606Z,145.03
2019-06-01T17:20:57.268Z,147.80
2019-06-01T17:23:29.390Z,146.60
2019-06-01T17:25:58.453Z,153.02
2019-06-01T17:28:28.371Z,155.63
2019-06-01T17:30:58.402Z,155.40
2019-06-01T17:33:29.871Z,154.63
2019-06-01T17:36:00.610Z,147.57
2019-06-01T17:38:30.280Z,148.57
2019-06-01T17:41:00.252Z,147.33
2019-06-01T17:43:29.980Z,147.50
2019-06-01T17:46:00.462Z,150.17
2019-06-01T17:48:30.583Z,147.00
2019-06-01T17:51:02.602Z,147.40
2019-06-01T17:53:36.547Z,159.20
2019-06-01T17:56:06.129Z,149.33
2019-06-01T17:58:36.343Z,148.13
2019-06-01T18:01:06.293Z,155.33
2019-06-01T18:03:35.818Z,152.07
2019-06-01T18:06:05.812Z,154.83
2019-06-01T18:08:35.443Z,155.33
2019-06-01T18:11:05.978Z,154.30
2019-06-01T18:13:35.720Z,156.57
2019-06-01T18:16:06.254Z,153.40
2019-06-01T18:18:36.095Z,159.70
2019-06-01T18:21:08.451Z,155.10
2019-06-01T18:23:37.937Z,155.17
2019-06-01T18:26:07.265Z,151.00
2019-06-01T18:28:36.868Z,153.70
2019-06-01T18:31:06.718Z,151.77
2019-06-01T18:33:37.222Z,152.67
2019-06-01T18:36:07.599Z,152.70
2019-06-01T18:38:37.810Z,154.57
2019-06-01T18:41:15.840Z,158.90
2019-06-01T18:43:39.093Z,159.73
2019-06-01T18:46:08.566Z,159.30
2019-06-01T18:48:37.970Z,160.33
2019-06-01T18:51:08.108Z,157.87
2019-06-01T18:53:37.865Z,167.47
2019-06-01T18:56:08.168Z,160.60
2019-06-01T18:58:38.151Z,157.00
2019-06-01T19:01:08.408Z,155.63
2019-06-01T19:03:37.892Z,156.93
2019-06-01T19:06:07.674Z,163.03
2019-06-01T19:08:37.382Z,155.97
2019-06-01T19:11:06.815Z,166.93
2019-06-01T19:13:36.500Z,161.60
2019-06-01T19:16:05.945Z,159.87
2019-06-01T19:18:35.600Z,165.27
2019-06-01T19:21:06.438Z,165.03
2019-06-01T19:23:36.297Z,157.87
2019-06-01T19:26:10.148Z,158.97
2019-06-01T19:28:37.908Z,159.37
2019-06-01T19:31:07.294Z,157.97
2019-06-01T19:33:36.680Z,160.87
2019-06-01T19:36:07.019Z,166.67
2019-06-01T19:38:38.151Z,158.57
2019-06-01T19:41:07.513Z,162.57
2019-06-01T19:43:37.527Z,163.33
2019-06-01T19:46:07.662Z,173.03
2019-06-01T19:48:37.403Z,162.20
2019-06-01T19:51:08.629Z,163.20
2019-06-01T19:53:38.313Z,166.47
2019-06-01T19:56:08.764Z,169.07
2019-06-01T19:58:38.289Z,166.47
2019-06-01T20:01:08.349Z,164.27
2019-06-01T20:03:38.388Z,162.87
2019-06-01T20:06:08.315Z,172.87
2019-06-01T20:08:37.882Z,168.43
2019-06-01T20:11:08.240Z,180.40
2019-06-01T20:13:42.468Z,171.90
2019-06-01T20:16:12.356Z,184.90
2019-06-01T20:18:42.328Z,169.80
2019-06-01T20:21:12.125Z,170.80
2019-06-01T20:23:41.512Z,173.30
2019-06-01T20:26:11.423Z,171.67
2019-06-01T20:28:41.401Z,168.70
2019-06-01T20:31:16.274Z,177.37
2019-06-01T20:33:45.722Z,162.97
2019-06-01T20:36:18.118Z,170.65
2019-06-01T20:38:50.801Z,174.30
2019-06-01T20:41:22.652Z,163.70
2019-06-01T20:43:56.585Z,168.07
2019-06-01T20:46:28.187Z,163.77
2019-06-01T20:48:59.915Z,164.50
2019-06-01T20:51:32.650Z,170.02
2019-06-01T20:54:06.615Z,173.62
2019-06-01T20:56:38.791Z,174.68
2019-06-01T20:59:09.566Z,168.40
2019-06-01T21:01:48.134Z,170.53
2019-06-01T21:04:22.368Z,165.10
2019-06-01T21:06:53.544Z,172.93
2019-06-01T21:09:30.028Z,163.97
2019-06-01T21:12:03.573Z,166.70
2019-06-01T21:14:36.949Z,168.90
2019-06-01T21:17:09.882Z,175.37
2019-06-01T21:19:40.738Z,179.27
2019-06-01T21:22:12.235Z,173.78
2019-06-01T21:24:43.150Z,177.43
2019-06-01T21:27:20.770Z,167.47
2019-06-01T21:30:01.275Z,164.27
2019-06-01T21:32:31.971Z,166.47
2019-06-01T21:35:03.369Z,175.90
2019-06-01T21:37:34.107Z,168.60
2019-06-01T21:40:06.051Z,174.27
2019-06-01T21:42:38.499Z,175.80
2019-06-01T21:45:08.031Z,178.83
2019-06-01T21:47:37.528Z,175.97
2019-06-01T21:50:07.381Z,172.50
2019-06-01T21:52:37.417Z,179.20
2019-06-01T21:55:07.673Z,175.43
2019-06-01T21:57:37.370Z,173.57
2019-06-01T22:00:09.597Z,183.90
2019-06-01T22:02:39.254Z,174.45
2019-06-01T22:05:09.338Z,175.87
2019-06-01T22:07:38.802Z,174.60
2019-06-01T22:10:08.507Z,172.57
2019-06-01T22:12:37.933Z,174.80
2019-06-01T22:15:07.531Z,175.47
2019-06-01T22:17:36.924Z,176.60
2019-06-01T22:20:07.448Z,173.60
2019-06-01T22:22:37.830Z,177.00
2019-06-01T22:25:07.369Z,177.40
2019-06-01T22:27:38.503Z,175.70
2019-06-01T22:30:08.615Z,176.77
2019-06-01T22:32:38.046Z,174.97
2019-06-01T22:35:08.369Z,175.80
2019-06-01T22:37:38.352Z,173.30
2019-06-01T22:40:08.075Z,172.47
2019-06-01T22:42:37.470Z,174.10
2019-06-01T22:45:07.293Z,180.07
2019-06-01T22:47:47.684Z,188.70
2019-06-01T22:50:18.082Z,173.17
2019-06-01T22:52:47.992Z,170.93
2019-06-01T22:55:18.053Z,171.65
2019-06-01T22:57:47.440Z,171.87
2019-06-01T23:00:19.254Z,175.53
2019-06-01T23:02:48.645Z,173.47
2019-06-01T23:05:18.071Z,177.97
2019-06-01T23:07:47.492Z,176.37
2019-06-01T23:10:18.653Z,178.02
2019-06-01T23:12:48.290Z,181.73
2019-06-01T23:15:18.690Z,178.67
2019-06-01T23:17:48.381Z,178.95
2019-06-01T23:20:18.152Z,178.27
2019-06-01T23:22:47.557Z,193.30
2019-06-01T23:25:18.646Z,187.74
2019-06-01T23:27:47.980Z,194.93
2019-06-01T23:30:21.989Z,181.40
2019-06-01T23:32:51.468Z,180.47
2019-06-01T23:35:22.330Z,179.82
2019-06-01T23:37:52.968Z,179.07
2019-06-01T23:40:22.894Z,181.27
2019-06-01T23:42:52.253Z,177.77
2019-06-01T23:45:22.581Z,178.95
2019-06-01T23:47:51.974Z,181.67
2019-06-01T23:50:21.625Z,175.72
2019-06-01T23:52:51.386Z,178.12
2019-06-01T23:55:20.813Z,192.85
2019-06-01T23:57:50.194Z,181.57
